sensor_id;sensor_type;location;lat;lon;timestamp;P1;durP1;ratioP1;P2;durP2;ratioP2
69981;SDS011;57319;56.274;43.980;2023-08-08T00:00:50;3.75;;;3.15;;
69981;SDS011;57319;56.274;43.980;2023-08-08T00:03:16;3.53;;;3.03;;
69981;SDS011;57319;56.274;43.980;2023-08-08T00:05:42;5.95;;;2.90;;
69981;SDS011;57319;56.274;43.980;2023-08-08T00:08:07;3.13;;;2.92;;
69981;SDS011;57319;56.274;43.980;2023-08-08T00:10:33;3.25;;;3.10;;
69981;SDS011;57319;56.274;43.980;2023-08-08T00:12:59;7.50;;;3.10;;
69981;SDS011;57319;56.274;43.980;2023-08-08T00:15:24;3.13;;;2.92;;
69981;SDS011;57319;56.274;43.980;2023-08-08T00:17:50;2.78;;;2.67;;
69981;SDS011;57319;56.274;43.980;2023-08-08T00:20:16;4.00;;;3.65;;
69981;SDS011;57319;56.274;43.980;2023-08-08T00:22:41;3.50;;;3.20;;
69981;SDS011;57319;56.274;43.980;2023-08-08T00:25:07;3.20;;;3.05;;
69981;SDS011;57319;56.274;43.980;2023-08-08T00:27:34;3.03;;;2.92;;
69981;SDS011;57319;56.274;43.980;2023-08-08T00:30:00;3.67;;;3.47;;
69981;SDS011;57319;56.274;43.980;2023-08-08T00:32:26;3.92;;;3.10;;
69981;SDS011;57319;56.274;43.980;2023-08-08T00:34:51;3.42;;;3.13;;
69981;SDS011;57319;56.274;43.980;2023-08-08T00:37:17;3.70;;;2.70;;
69981;SDS011;57319;56.274;43.980;2023-08-08T00:39:43;5.85;;;3.10;;
69981;SDS011;57319;56.274;43.980;2023-08-08T00:42:12;3.10;;;3.00;;
69981;SDS011;57319;56.274;43.980;2023-08-08T00:44:38;3.13;;;3.00;;
69981;SDS011;57319;56.274;43.980;2023-08-08T00:47:06;4.32;;;3.22;;
69981;SDS011;57319;56.274;43.980;2023-08-08T00:49:33;4.32;;;3.08;;
69981;SDS011;57319;56.274;43.980;2023-08-08T00:51:59;3.40;;;3.10;;
69981;SDS011;57319;56.274;43.980;2023-08-08T00:54:25;3.00;;;2.80;;
69981;SDS011;57319;56.274;43.980;2023-08-08T00:56:51;3.20;;;3.00;;
69981;SDS011;57319;56.274;43.980;2023-08-08T00:59:17;5.25;;;4.05;;
69981;SDS011;57319;56.274;43.980;2023-08-08T01:01:44;3.38;;;3.20;;
69981;SDS011;57319;56.274;43.980;2023-08-08T01:04:10;4.85;;;3.15;;
69981;SDS011;57319;56.274;43.980;2023-08-08T01:06:41;4.35;;;3.53;;
69981;SDS011;57319;56.274;43.980;2023-08-08T01:11:49;3.42;;;3.15;;
69981;SDS011;57319;56.274;43.980;2023-08-08T01:14:17;3.90;;;3.60;;
69981;SDS011;57319;56.274;43.980;2023-08-08T01:16:44;3.58;;;3.38;;
69981;SDS011;57319;56.274;43.980;2023-08-08T01:19:14;4.47;;;3.88;;
69981;SDS011;57319;56.274;43.980;2023-08-08T01:21:47;6.20;;;3.50;;
69981;SDS011;57319;56.274;43.980;2023-08-08T01:24:18;3.80;;;3.40;;
69981;SDS011;57319;56.274;43.980;2023-08-08T01:26:45;4.20;;;3.47;;
69981;SDS011;57319;56.274;43.980;2023-08-08T01:29:11;4.00;;;3.22;;
69981;SDS011;57319;56.274;43.980;2023-08-08T01:31:37;3.92;;;3.72;;
69981;SDS011;57319;56.274;43.980;2023-08-08T01:34:02;13.80;;;3.58;;
69981;SDS011;57319;56.274;43.980;2023-08-08T01:36:44;6.35;;;3.83;;
69981;SDS011;57319;56.274;43.980;2023-08-08T01:39:17;3.85;;;3.55;;
69981;SDS011;57319;56.274;43.980;2023-08-08T01:41:46;4.15;;;3.50;;
69981;SDS011;57319;56.274;43.980;2023-08-08T01:44:13;3.78;;;3.35;;
69981;SDS011;57319;56.274;43.980;2023-08-08T01:46:40;4.38;;;3.65;;
69981;SDS011;57319;56.274;43.980;2023-08-08T01:49:06;4.28;;;3.60;;
69981;SDS011;57319;56.274;43.980;2023-08-08T01:51:32;6.60;;;3.63;;
69981;SDS011;57319;56.274;43.980;2023-08-08T01:53:57;4.68;;;3.35;;
69981;SDS011;57319;56.274;43.980;2023-08-08T01:56:23;3.88;;;3.28;;
69981;SDS011;57319;56.274;43.980;2023-08-08T01:58:49;3.45;;;3.35;;
69981;SDS011;57319;56.274;43.980;2023-08-08T02:01:14;3.90;;;3.55;;
69981;SDS011;57319;56.274;43.980;2023-08-08T02:03:40;4.20;;;3.72;;
69981;SDS011;57319;56.274;43.980;2023-08-08T02:06:06;4.18;;;3.88;;
69981;SDS011;57319;56.274;43.980;2023-08-08T02:08:31;3.45;;;3.35;;
69981;SDS011;57319;56.274;43.980;2023-08-08T02:10:57;3.90;;;3.60;;
69981;SDS011;57319;56.274;43.980;2023-08-08T02:13:23;4.43;;;3.40;;
69981;SDS011;57319;56.274;43.980;2023-08-08T02:15:49;4.30;;;3.90;;
69981;SDS011;57319;56.274;43.980;2023-08-08T02:18:15;6.72;;;3.88;;
69981;SDS011;57319;56.274;43.980;2023-08-08T02:20:40;5.60;;;4.32;;
69981;SDS011;57319;56.274;43.980;2023-08-08T02:23:06;3.47;;;3.28;;
69981;SDS011;57319;56.274;43.980;2023-08-08T02:25:32;5.05;;;3.38;;
69981;SDS011;57319;56.274;43.980;2023-08-08T02:27:57;3.38;;;3.20;;
69981;SDS011;57319;56.274;43.980;2023-08-08T02:30:23;3.42;;;3.17;;
69981;SDS011;57319;56.274;43.980;2023-08-08T02:32:49;3.78;;;3.47;;
69981;SDS011;57319;56.274;43.980;2023-08-08T02:35:14;6.72;;;3.50;;
69981;SDS011;57319;56.274;43.980;2023-08-08T02:37:40;3.45;;;3.20;;
69981;SDS011;57319;56.274;43.980;2023-08-08T02:40:06;3.65;;;3.03;;
69981;SDS011;57319;56.274;43.980;2023-08-08T02:42:33;4.25;;;3.42;;
69981;SDS011;57319;56.274;43.980;2023-08-08T02:44:58;3.47;;;3.38;;
69981;SDS011;57319;56.274;43.980;2023-08-08T02:47:24;7.00;;;3.53;;
69981;SDS011;57319;56.274;43.980;2023-08-08T02:49:50;4.93;;;3.40;;
69981;SDS011;57319;56.274;43.980;2023-08-08T02:52:16;3.45;;;3.17;;
69981;SDS011;57319;56.274;43.980;2023-08-08T02:54:41;4.53;;;3.33;;
69981;SDS011;57319;56.274;43.980;2023-08-08T02:57:07;3.33;;;3.13;;
69981;SDS011;57319;56.274;43.980;2023-08-08T02:59:36;3.97;;;3.75;;
69981;SDS011;57319;56.274;43.980;2023-08-08T03:02:02;3.88;;;3.65;;
69981;SDS011;57319;56.274;43.980;2023-08-08T03:04:28;3.60;;;3.33;;
69981;SDS011;57319;56.274;43.980;2023-08-08T03:06:54;11.80;;;3.83;;
69981;SDS011;57319;56.274;43.980;2023-08-08T03:09:20;3.45;;;3.30;;
69981;SDS011;57319;56.274;43.980;2023-08-08T03:11:46;5.53;;;3.80;;
69981;SDS011;57319;56.274;43.980;2023-08-08T03:14:12;6.32;;;3.28;;
69981;SDS011;57319;56.274;43.980;2023-08-08T03:16:38;3.28;;;3.00;;
69981;SDS011;57319;56.274;43.980;2023-08-08T03:19:04;3.72;;;3.60;;
69981;SDS011;57319;56.274;43.980;2023-08-08T03:21:29;4.43;;;3.40;;
69981;SDS011;57319;56.274;43.980;2023-08-08T03:23:55;6.57;;;3.30;;
69981;SDS011;57319;56.274;43.980;2023-08-08T03:26:21;3.00;;;2.90;;
69981;SDS011;57319;56.274;43.980;2023-08-08T03:28:47;5.40;;;3.15;;
69981;SDS011;57319;56.274;43.980;2023-08-08T03:31:19;3.30;;;3.20;;
69981;SDS011;57319;56.274;43.980;2023-08-08T03:33:45;3.30;;;2.92;;
69981;SDS011;57319;56.274;43.980;2023-08-08T03:36:11;5.50;;;3.55;;
69981;SDS011;57319;56.274;43.980;2023-08-08T03:38:36;4.63;;;3.00;;
69981;SDS011;57319;56.274;43.980;2023-08-08T03:41:03;4.63;;;3.17;;
69981;SDS011;57319;56.274;43.980;2023-08-08T03:43:30;3.83;;;3.55;;
69981;SDS011;57319;56.274;43.980;2023-08-08T03:45:56;3.85;;;3.20;;
69981;SDS011;57319;56.274;43.980;2023-08-08T03:48:22;11.38;;;3.40;;
69981;SDS011;57319;56.274;43.980;2023-08-08T03:50:48;8.15;;;3.25;;
69981;SDS011;57319;56.274;43.980;2023-08-08T03:53:14;3.42;;;3.00;;
69981;SDS011;57319;56.274;43.980;2023-08-08T03:55:40;3.25;;;3.05;;
69981;SDS011;57319;56.274;43.980;2023-08-08T03:58:05;6.18;;;3.10;;
69981;SDS011;57319;56.274;43.980;2023-08-08T04:00:31;8.23;;;3.28;;
69981;SDS011;57319;56.274;43.980;2023-08-08T04:02:57;3.17;;;2.95;;
69981;SDS011;57319;56.274;43.980;2023-08-08T04:05:23;5.82;;;3.75;;
69981;SDS011;57319;56.274;43.980;2023-08-08T04:07:49;4.80;;;2.67;;
69981;SDS011;57319;56.274;43.980;2023-08-08T04:10:15;3.65;;;3.35;;
69981;SDS011;57319;56.274;43.980;2023-08-08T04:12:40;5.97;;;3.05;;
69981;SDS011;57319;56.274;43.980;2023-08-08T04:15:06;5.22;;;2.90;;
69981;SDS011;57319;56.274;43.980;2023-08-08T04:17:32;3.20;;;3.05;;
69981;SDS011;57319;56.274;43.980;2023-08-08T04:19:58;4.68;;;2.88;;
69981;SDS011;57319;56.274;43.980;2023-08-08T04:22:24;3.28;;;2.90;;
69981;SDS011;57319;56.274;43.980;2023-08-08T04:24:49;3.45;;;3.20;;
69981;SDS011;57319;56.274;43.980;2023-08-08T04:27:15;3.83;;;2.72;;
69981;SDS011;57319;56.274;43.980;2023-08-08T04:29:41;4.38;;;2.92;;
69981;SDS011;57319;56.274;43.980;2023-08-08T04:32:07;3.38;;;3.08;;
69981;SDS011;57319;56.274;43.980;2023-08-08T04:34:32;3.83;;;3.25;;
69981;SDS011;57319;56.274;43.980;2023-08-08T04:36:58;2.88;;;2.78;;
69981;SDS011;57319;56.274;43.980;2023-08-08T04:39:24;5.22;;;2.95;;
69981;SDS011;57319;56.274;43.980;2023-08-08T04:41:49;3.70;;;3.05;;
69981;SDS011;57319;56.274;43.980;2023-08-08T04:44:15;11.95;;;3.13;;
69981;SDS011;57319;56.274;43.980;2023-08-08T04:46:41;9.82;;;2.80;;
69981;SDS011;57319;56.274;43.980;2023-08-08T04:49:06;3.83;;;2.70;;
69981;SDS011;57319;56.274;43.980;2023-08-08T04:51:32;3.60;;;3.05;;
69981;SDS011;57319;56.274;43.980;2023-08-08T04:53:58;4.68;;;3.35;;
69981;SDS011;57319;56.274;43.980;2023-08-08T04:56:24;3.55;;;3.05;;
69981;SDS011;57319;56.274;43.980;2023-08-08T04:58:50;4.00;;;2.83;;
69981;SDS011;57319;56.274;43.980;2023-08-08T05:01:15;2.78;;;2.60;;
69981;SDS011;57319;56.274;43.980;2023-08-08T05:03:43;6.72;;;2.70;;
69981;SDS011;57319;56.274;43.980;2023-08-08T05:06:09;8.93;;;4.28;;
69981;SDS011;57319;56.274;43.980;2023-08-08T05:08:34;3.10;;;2.80;;
69981;SDS011;57319;56.274;43.980;2023-08-08T05:11:00;8.57;;;2.70;;
69981;SDS011;57319;56.274;43.980;2023-08-08T05:13:26;4.93;;;3.15;;
69981;SDS011;57319;56.274;43.980;2023-08-08T05:15:51;4.60;;;3.30;;
69981;SDS011;57319;56.274;43.980;2023-08-08T05:18:17;3.08;;;2.95;;
69981;SDS011;57319;56.274;43.980;2023-08-08T05:20:43;9.02;;;3.17;;
69981;SDS011;57319;56.274;43.980;2023-08-08T05:23:08;9.15;;;3.67;;
69981;SDS011;57319;56.274;43.980;2023-08-08T05:25:34;5.45;;;3.05;;
69981;SDS011;57319;56.274;43.980;2023-08-08T05:28:00;5.43;;;2.85;;
69981;SDS011;57319;56.274;43.980;2023-08-08T05:30:26;10.38;;;2.85;;
69981;SDS011;57319;56.274;43.980;2023-08-08T05:32:51;8.15;;;3.53;;
69981;SDS011;57319;56.274;43.980;2023-08-08T05:35:17;9.02;;;3.20;;
69981;SDS011;57319;56.274;43.980;2023-08-08T05:37:43;3.25;;;2.70;;
69981;SDS011;57319;56.274;43.980;2023-08-08T05:40:08;4.97;;;2.40;;
69981;SDS011;57319;56.274;43.980;2023-08-08T05:42:36;49.97;;;4.63;;
69981;SDS011;57319;56.274;43.980;2023-08-08T05:45:02;10.02;;;2.80;;
69981;SDS011;57319;56.274;43.980;2023-08-08T05:47:31;22.02;;;3.35;;
69981;SDS011;57319;56.274;43.980;2023-08-08T05:49:58;42.00;;;4.72;;
69981;SDS011;57319;56.274;43.980;2023-08-08T05:52:23;13.07;;;3.50;;
69981;SDS011;57319;56.274;43.980;2023-08-08T05:54:49;7.13;;;2.85;;
69981;SDS011;57319;56.274;43.980;2023-08-08T05:57:15;29.55;;;3.90;;
69981;SDS011;57319;56.274;43.980;2023-08-08T05:59:40;7.82;;;3.08;;
69981;SDS011;57319;56.274;43.980;2023-08-08T06:02:06;8.43;;;2.50;;
69981;SDS011;57319;56.274;43.980;2023-08-08T06:04:32;5.45;;;2.30;;
69981;SDS011;57319;56.274;43.980;2023-08-08T06:06:57;2.67;;;2.35;;
69981;SDS011;57319;56.274;43.980;2023-08-08T06:09:23;8.50;;;2.33;;
69981;SDS011;57319;56.274;43.980;2023-08-08T06:11:50;6.30;;;3.00;;
69981;SDS011;57319;56.274;43.980;2023-08-08T06:14:16;7.30;;;3.05;;
69981;SDS011;57319;56.274;43.980;2023-08-08T06:16:42;10.50;;;2.35;;
69981;SDS011;57319;56.274;43.980;2023-08-08T06:19:08;7.97;;;2.58;;
69981;SDS011;57319;56.274;43.980;2023-08-08T06:21:35;7.97;;;2.53;;
69981;SDS011;57319;56.274;43.980;2023-08-08T06:24:01;6.78;;;2.58;;
69981;SDS011;57319;56.274;43.980;2023-08-08T06:26:27;8.50;;;2.80;;
69981;SDS011;57319;56.274;43.980;2023-08-08T06:28:52;3.13;;;2.28;;
69981;SDS011;57319;56.274;43.980;2023-08-08T06:31:18;6.93;;;2.53;;
69981;SDS011;57319;56.274;43.980;2023-08-08T06:33:44;3.20;;;2.17;;
69981;SDS011;57319;56.274;43.980;2023-08-08T06:36:10;4.90;;;2.50;;
69981;SDS011;57319;56.274;43.980;2023-08-08T06:38:36;5.43;;;2.50;;
69981;SDS011;57319;56.274;43.980;2023-08-08T06:41:04;5.45;;;2.55;;
69981;SDS011;57319;56.274;43.980;2023-08-08T06:43:30;3.22;;;2.70;;
69981;SDS011;57319;56.274;43.980;2023-08-08T06:45:56;3.38;;;2.63;;
69981;SDS011;57319;56.274;43.980;2023-08-08T06:48:22;3.70;;;2.67;;
69981;SDS011;57319;56.274;43.980;2023-08-08T06:50:48;3.53;;;3.00;;
69981;SDS011;57319;56.274;43.980;2023-08-08T06:53:14;2.60;;;2.40;;
69981;SDS011;57319;56.274;43.980;2023-08-08T06:55:42;2.75;;;2.47;;
69981;SDS011;57319;56.274;43.980;2023-08-08T06:58:08;5.55;;;2.70;;
69981;SDS011;57319;56.274;43.980;2023-08-08T07:00:36;2.50;;;2.30;;
69981;SDS011;57319;56.274;43.980;2023-08-08T07:03:02;7.00;;;2.10;;
69981;SDS011;57319;56.274;43.980;2023-08-08T07:05:28;2.47;;;2.22;;
69981;SDS011;57319;56.274;43.980;2023-08-08T07:07:55;2.20;;;2.08;;
69981;SDS011;57319;56.274;43.980;2023-08-08T07:10:21;5.15;;;2.30;;
69981;SDS011;57319;56.274;43.980;2023-08-08T07:12:48;2.30;;;2.20;;
69981;SDS011;57319;56.274;43.980;2023-08-08T07:15:14;2.58;;;2.38;;
69981;SDS011;57319;56.274;43.980;2023-08-08T07:17:40;4.97;;;2.40;;
69981;SDS011;57319;56.274;43.980;2023-08-08T07:20:06;2.78;;;2.40;;
69981;SDS011;57319;56.274;43.980;2023-08-08T07:22:33;2.35;;;2.25;;
69981;SDS011;57319;56.274;43.980;2023-08-08T07:24:59;2.47;;;2.28;;
69981;SDS011;57319;56.274;43.980;2023-08-08T07:27:26;5.70;;;1.95;;
69981;SDS011;57319;56.274;43.980;2023-08-08T07:29:52;5.68;;;2.00;;
69981;SDS011;57319;56.274;43.980;2023-08-08T07:32:18;2.30;;;2.20;;
69981;SDS011;57319;56.274;43.980;2023-08-08T07:34:44;2.33;;;2.20;;
69981;SDS011;57319;56.274;43.980;2023-08-08T07:37:10;3.10;;;2.20;;
69981;SDS011;57319;56.274;43.980;2023-08-08T07:39:37;7.40;;;2.15;;
69981;SDS011;57319;56.274;43.980;2023-08-08T07:42:03;5.05;;;2.30;;
69981;SDS011;57319;56.274;43.980;2023-08-08T07:44:29;8.77;;;2.45;;
69981;SDS011;57319;56.274;43.980;2023-08-08T07:46:57;4.13;;;2.30;;
69981;SDS011;57319;56.274;43.980;2023-08-08T07:49:22;10.07;;;2.67;;
69981;SDS011;57319;56.274;43.980;2023-08-08T07:51:48;2.15;;;2.05;;
69981;SDS011;57319;56.274;43.980;2023-08-08T07:54:14;2.03;;;1.92;;
69981;SDS011;57319;56.274;43.980;2023-08-08T07:56:40;3.55;;;2.15;;
69981;SDS011;57319;56.274;43.980;2023-08-08T07:59:07;3.92;;;1.85;;
69981;SDS011;57319;56.274;43.980;2023-08-08T08:01:34;1.75;;;1.70;;
69981;SDS011;57319;56.274;43.980;2023-08-08T08:04:02;3.20;;;2.45;;
69981;SDS011;57319;56.274;43.980;2023-08-08T08:06:28;2.00;;;1.98;;
69981;SDS011;57319;56.274;43.980;2023-08-08T08:08:54;7.28;;;2.53;;
69981;SDS011;57319;56.274;43.980;2023-08-08T08:11:21;9.93;;;2.00;;
69981;SDS011;57319;56.274;43.980;2023-08-08T08:13:47;3.22;;;1.80;;
69981;SDS011;57319;56.274;43.980;2023-08-08T08:16:12;1.92;;;1.73;;
69981;SDS011;57319;56.274;43.980;2023-08-08T08:18:38;1.88;;;1.77;;
69981;SDS011;57319;56.274;43.980;2023-08-08T08:21:04;1.88;;;1.80;;
69981;SDS011;57319;56.274;43.980;2023-08-08T08:23:31;4.03;;;1.92;;
69981;SDS011;57319;56.274;43.980;2023-08-08T08:25:58;2.33;;;2.13;;
69981;SDS011;57319;56.274;43.980;2023-08-08T08:28:25;3.60;;;1.60;;
69981;SDS011;57319;56.274;43.980;2023-08-08T08:30:52;5.00;;;1.90;;
69981;SDS011;57319;56.274;43.980;2023-08-08T08:33:18;2.85;;;1.83;;
69981;SDS011;57319;56.274;43.980;2023-08-08T08:35:46;1.80;;;1.73;;
69981;SDS011;57319;56.274;43.980;2023-08-08T08:38:13;3.42;;;1.92;;
69981;SDS011;57319;56.274;43.980;2023-08-08T08:40:40;5.82;;;1.98;;
69981;SDS011;57319;56.274;43.980;2023-08-08T08:43:07;3.50;;;2.20;;
69981;SDS011;57319;56.274;43.980;2023-08-08T08:45:37;1.98;;;1.88;;
69981;SDS011;57319;56.274;43.980;2023-08-08T08:48:08;4.90;;;1.98;;
69981;SDS011;57319;56.274;43.980;2023-08-08T08:50:36;2.28;;;2.10;;
69981;SDS011;57319;56.274;43.980;2023-08-08T08:53:12;2.17;;;2.08;;
69981;SDS011;57319;56.274;43.980;2023-08-08T08:55:39;2.10;;;1.80;;
69981;SDS011;57319;56.274;43.980;2023-08-08T08:58:05;1.95;;;1.85;;
69981;SDS011;57319;56.274;43.980;2023-08-08T09:00:31;2.13;;;2.03;;
69981;SDS011;57319;56.274;43.980;2023-08-08T09:03:00;2.05;;;1.95;;
69981;SDS011;57319;56.274;43.980;2023-08-08T09:05:28;7.68;;;2.10;;
69981;SDS011;57319;56.274;43.980;2023-08-08T09:07:54;2.58;;;2.00;;
69981;SDS011;57319;56.274;43.980;2023-08-08T09:10:20;5.07;;;1.88;;
69981;SDS011;57319;56.274;43.980;2023-08-08T09:12:47;3.88;;;2.10;;
69981;SDS011;57319;56.274;43.980;2023-08-08T09:15:15;4.57;;;1.90;;
69981;SDS011;57319;56.274;43.980;2023-08-08T09:17:42;6.35;;;1.83;;
69981;SDS011;57319;56.274;43.980;2023-08-08T09:20:10;2.10;;;1.80;;
69981;SDS011;57319;56.274;43.980;2023-08-08T09:22:38;3.42;;;1.85;;
69981;SDS011;57319;56.274;43.980;2023-08-08T09:25:06;5.80;;;2.10;;
69981;SDS011;57319;56.274;43.980;2023-08-08T09:27:33;6.05;;;1.67;;
69981;SDS011;57319;56.274;43.980;2023-08-08T09:30:00;2.75;;;1.90;;
69981;SDS011;57319;56.274;43.980;2023-08-08T09:32:31;1.77;;;1.67;;
69981;SDS011;57319;56.274;43.980;2023-08-08T09:34:58;5.07;;;2.15;;
69981;SDS011;57319;56.274;43.980;2023-08-08T09:37:24;2.55;;;2.35;;
69981;SDS011;57319;56.274;43.980;2023-08-08T09:39:59;2.00;;;1.90;;
69981;SDS011;57319;56.274;43.980;2023-08-08T09:42:28;1.88;;;1.88;;
69981;SDS011;57319;56.274;43.980;2023-08-08T09:44:58;3.63;;;1.63;;
69981;SDS011;57319;56.274;43.980;2023-08-08T09:47:24;1.80;;;1.70;;
69981;SDS011;57319;56.274;43.980;2023-08-08T09:49:57;5.80;;;1.90;;
69981;SDS011;57319;56.274;43.980;2023-08-08T09:52:26;3.10;;;1.90;;
69981;SDS011;57319;56.274;43.980;2023-08-08T09:54:56;8.75;;;2.10;;
69981;SDS011;57319;56.274;43.980;2023-08-08T09:57:22;3.67;;;1.77;;
69981;SDS011;57319;56.274;43.980;2023-08-08T09:59:48;6.60;;;1.95;;
69981;SDS011;57319;56.274;43.980;2023-08-08T10:02:18;3.28;;;1.95;;
69981;SDS011;57319;56.274;43.980;2023-08-08T10:04:45;9.30;;;1.90;;
69981;SDS011;57319;56.274;43.980;2023-08-08T10:07:12;2.15;;;2.00;;
69981;SDS011;57319;56.274;43.980;2023-08-08T10:09:38;3.13;;;2.00;;
69981;SDS011;57319;56.274;43.980;2023-08-08T10:12:05;2.00;;;1.90;;
69981;SDS011;57319;56.274;43.980;2023-08-08T10:14:32;1.90;;;1.77;;
69981;SDS011;57319;56.274;43.980;2023-08-08T10:17:03;2.33;;;2.22;;
69981;SDS011;57319;56.274;43.980;2023-08-08T10:19:30;3.20;;;1.98;;
69981;SDS011;57319;56.274;43.980;2023-08-08T10:21:57;2.10;;;1.95;;
69981;SDS011;57319;56.274;43.980;2023-08-08T10:24:25;7.63;;;1.70;;
69981;SDS011;57319;56.274;43.980;2023-08-08T10:26:56;7.00;;;2.08;;
69981;SDS011;57319;56.274;43.980;2023-08-08T10:29:24;1.90;;;1.90;;
69981;SDS011;57319;56.274;43.980;2023-08-08T10:32:01;1.88;;;1.70;;
69981;SDS011;57319;56.274;43.980;2023-08-08T10:37:14;5.15;;;2.03;;
69981;SDS011;57319;56.274;43.980;2023-08-08T10:40:00;9.10;;;2.05;;
69981;SDS011;57319;56.274;43.980;2023-08-08T10:42:32;6.63;;;2.17;;
69981;SDS011;57319;56.274;43.980;2023-08-08T10:47:34;1.80;;;1.80;;
69981;SDS011;57319;56.274;43.980;2023-08-08T10:52:30;2.30;;;1.88;;
69981;SDS011;57319;56.274;43.980;2023-08-08T10:54:56;4.30;;;1.67;;
69981;SDS011;57319;56.274;43.980;2023-08-08T10:57:25;1.70;;;1.67;;
69981;SDS011;57319;56.274;43.980;2023-08-08T10:59:51;1.83;;;1.73;;
69981;SDS011;57319;56.274;43.980;2023-08-08T11:02:19;1.98;;;1.70;;
69981;SDS011;57319;56.274;43.980;2023-08-08T11:04:45;1.80;;;1.80;;
69981;SDS011;57319;56.274;43.980;2023-08-08T11:07:14;2.60;;;2.28;;
69981;SDS011;57319;56.274;43.980;2023-08-08T11:09:42;1.75;;;1.65;;
69981;SDS011;57319;56.274;43.980;2023-08-08T11:12:15;1.88;;;1.88;;
69981;SDS011;57319;56.274;43.980;2023-08-08T11:14:41;5.07;;;1.98;;
69981;SDS011;57319;56.274;43.980;2023-08-08T11:17:06;2.45;;;1.55;;
69981;SDS011;57319;56.274;43.980;2023-08-08T11:19:38;1.70;;;1.70;;
69981;SDS011;57319;56.274;43.980;2023-08-08T11:22:08;9.18;;;1.90;;
69981;SDS011;57319;56.274;43.980;2023-08-08T11:24:35;3.70;;;1.80;;
69981;SDS011;57319;56.274;43.980;2023-08-08T11:27:01;4.85;;;1.98;;
69981;SDS011;57319;56.274;43.980;2023-08-08T11:29:26;4.38;;;2.13;;
69981;SDS011;57319;56.274;43.980;2023-08-08T11:32:04;6.97;;;1.88;;
69981;SDS011;57319;56.274;43.980;2023-08-08T11:34:34;3.55;;;1.95;;
69981;SDS011;57319;56.274;43.980;2023-08-08T11:37:00;1.80;;;1.70;;
69981;SDS011;57319;56.274;43.980;2023-08-08T11:39:26;2.05;;;1.83;;
69981;SDS011;57319;56.274;43.980;2023-08-08T11:41:54;2.28;;;1.90;;
69981;SDS011;57319;56.274;43.980;2023-08-08T11:44:20;1.65;;;1.65;;
69981;SDS011;57319;56.274;43.980;2023-08-08T11:46:46;1.77;;;1.77;;
69981;SDS011;57319;56.274;43.980;2023-08-08T11:49:13;4.25;;;1.90;;
69981;SDS011;57319;56.274;43.980;2023-08-08T11:51:42;2.42;;;1.70;;
69981;SDS011;57319;56.274;43.980;2023-08-08T11:54:09;1.85;;;1.75;;
69981;SDS011;57319;56.274;43.980;2023-08-08T11:56:35;3.28;;;1.70;;
69981;SDS011;57319;56.274;43.980;2023-08-08T11:59:02;1.85;;;1.83;;
69981;SDS011;57319;56.274;43.980;2023-08-08T12:01:28;1.63;;;1.63;;
69981;SDS011;57319;56.274;43.980;2023-08-08T12:03:56;1.98;;;1.90;;
69981;SDS011;57319;56.274;43.980;2023-08-08T12:06:22;2.53;;;1.92;;
69981;SDS011;57319;56.274;43.980;2023-08-08T12:08:54;3.70;;;1.92;;
69981;SDS011;57319;56.274;43.980;2023-08-08T12:11:20;3.22;;;1.70;;
69981;SDS011;57319;56.274;43.980;2023-08-08T12:13:45;2.42;;;1.60;;
69981;SDS011;57319;56.274;43.980;2023-08-08T12:16:12;5.18;;;1.63;;
69981;SDS011;57319;56.274;43.980;2023-08-08T12:18:39;1.73;;;1.70;;
69981;SDS011;57319;56.274;43.980;2023-08-08T12:21:08;2.63;;;1.98;;
69981;SDS011;57319;56.274;43.980;2023-08-08T12:23:35;5.03;;;1.95;;
69981;SDS011;57319;56.274;43.980;2023-08-08T12:26:04;2.30;;;1.83;;
69981;SDS011;57319;56.274;43.980;2023-08-08T12:28:31;1.77;;;1.60;;
69981;SDS011;57319;56.274;43.980;2023-08-08T12:30:58;1.70;;;1.60;;
69981;SDS011;57319;56.274;43.980;2023-08-08T12:33:24;3.90;;;1.92;;
69981;SDS011;57319;56.274;43.980;2023-08-08T12:35:50;7.22;;;1.88;;
69981;SDS011;57319;56.274;43.980;2023-08-08T12:38:16;1.58;;;1.58;;
69981;SDS011;57319;56.274;43.980;2023-08-08T12:40:42;1.80;;;1.70;;
69981;SDS011;57319;56.274;43.980;2023-08-08T12:43:09;1.98;;;1.60;;
69981;SDS011;57319;56.274;43.980;2023-08-08T12:45:39;2.17;;;1.95;;
69981;SDS011;57319;56.274;43.980;2023-08-08T12:48:05;2.28;;;1.70;;
69981;SDS011;57319;56.274;43.980;2023-08-08T12:50:31;1.98;;;1.90;;
69981;SDS011;57319;56.274;43.980;2023-08-08T12:52:57;6.63;;;1.73;;
69981;SDS011;57319;56.274;43.980;2023-08-08T12:55:22;6.95;;;1.95;;
69981;SDS011;57319;56.274;43.980;2023-08-08T12:57:48;1.60;;;1.60;;
69981;SDS011;57319;56.274;43.980;2023-08-08T13:00:14;1.60;;;1.60;;
69981;SDS011;57319;56.274;43.980;2023-08-08T13:02:40;1.80;;;1.73;;
69981;SDS011;57319;56.274;43.980;2023-08-08T13:05:05;1.83;;;1.42;;
69981;SDS011;57319;56.274;43.980;2023-08-08T13:07:32;4.78;;;1.70;;
69981;SDS011;57319;56.274;43.980;2023-08-08T13:09:59;2.75;;;1.52;;
69981;SDS011;57319;56.274;43.980;2023-08-08T13:12:25;5.45;;;1.88;;
69981;SDS011;57319;56.274;43.980;2023-08-08T13:14:51;1.70;;;1.70;;
69981;SDS011;57319;56.274;43.980;2023-08-08T13:17:16;4.22;;;1.90;;
69981;SDS011;57319;56.274;43.980;2023-08-08T13:19:42;11.68;;;1.90;;
69981;SDS011;57319;56.274;43.980;2023-08-08T13:22:08;3.75;;;1.75;;
69981;SDS011;57319;56.274;43.980;2023-08-08T13:24:33;1.90;;;1.90;;
69981;SDS011;57319;56.274;43.980;2023-08-08T13:26:59;4.18;;;1.65;;
69981;SDS011;57319;56.274;43.980;2023-08-08T13:29:25;1.65;;;1.60;;
69981;SDS011;57319;56.274;43.980;2023-08-08T13:31:50;1.85;;;1.70;;
69981;SDS011;57319;56.274;43.980;2023-08-08T13:34:16;1.55;;;1.50;;
69981;SDS011;57319;56.274;43.980;2023-08-08T13:36:41;2.33;;;2.22;;
69981;SDS011;57319;56.274;43.980;2023-08-08T13:39:07;4.05;;;1.88;;
69981;SDS011;57319;56.274;43.980;2023-08-08T13:41:34;3.10;;;2.30;;
69981;SDS011;57319;56.274;43.980;2023-08-08T13:44:00;2.88;;;1.83;;
69981;SDS011;57319;56.274;43.980;2023-08-08T13:46:26;5.82;;;1.83;;
69981;SDS011;57319;56.274;43.980;2023-08-08T13:48:51;1.52;;;1.52;;
69981;SDS011;57319;56.274;43.980;2023-08-08T13:51:17;1.90;;;1.80;;
69981;SDS011;57319;56.274;43.980;2023-08-08T13:53:43;1.60;;;1.60;;
69981;SDS011;57319;56.274;43.980;2023-08-08T13:56:10;1.80;;;1.70;;
69981;SDS011;57319;56.274;43.980;2023-08-08T13:58:36;3.33;;;1.90;;
69981;SDS011;57319;56.274;43.980;2023-08-08T14:01:02;3.00;;;1.85;;
69981;SDS011;57319;56.274;43.980;2023-08-08T14:03:28;7.55;;;2.05;;
69981;SDS011;57319;56.274;43.980;2023-08-08T14:05:54;3.75;;;2.00;;
69981;SDS011;57319;56.274;43.980;2023-08-08T14:08:19;6.28;;;1.73;;
69981;SDS011;57319;56.274;43.980;2023-08-08T14:10:45;2.17;;;2.08;;
69981;SDS011;57319;56.274;43.980;2023-08-08T14:13:11;1.85;;;1.75;;
69981;SDS011;57319;56.274;43.980;2023-08-08T14:15:37;1.90;;;1.80;;
69981;SDS011;57319;56.274;43.980;2023-08-08T14:18:03;2.47;;;2.28;;
69981;SDS011;57319;56.274;43.980;2023-08-08T14:20:29;1.83;;;1.73;;
69981;SDS011;57319;56.274;43.980;2023-08-08T14:22:55;6.07;;;1.92;;
69981;SDS011;57319;56.274;43.980;2023-08-08T14:25:21;2.25;;;2.08;;
69981;SDS011;57319;56.274;43.980;2023-08-08T14:27:47;3.05;;;2.10;;
69981;SDS011;57319;56.274;43.980;2023-08-08T14:30:13;7.15;;;2.05;;
69981;SDS011;57319;56.274;43.980;2023-08-08T14:32:39;2.13;;;2.10;;
69981;SDS011;57319;56.274;43.980;2023-08-08T14:35:05;2.50;;;2.40;;
69981;SDS011;57319;56.274;43.980;2023-08-08T14:37:34;2.47;;;2.38;;
69981;SDS011;57319;56.274;43.980;2023-08-08T14:40:00;2.30;;;2.13;;